Time;durP1;ratioP1;P1;durP2;ratioP2;P2;SDS_P1;SDS_P2;PMS_P1;PMS_P2;Temp;Humidity;BMP_temperature;BMP_pressure;BME280_temperature;BME280_humidity;BME280_pressure;Samples;Min_cycle;Max_cycle;Signal;HPM_P1;HPM_P2
2023/02/22 00:02:58;;;;;;;7.80;3.20;;;18.30;39.60;;;;;;5141817;27;20176;-87
2023/02/22 00:05:25;;;;;;;6.38;3.20;;;18.30;39.60;;;;;;5143369;27;20168;-87
2023/02/22 00:07:55;;;;;;;7.82;3.58;;;18.40;39.70;;;;;;5126006;28;20168;-87
2023/02/22 00:10:26;;;;;;;7.40;3.10;;;18.30;39.60;;;;;;5109041;28;20296;-88
2023/02/22 00:12:54;;;;;;;6.50;2.85;;;18.30;39.70;;;;;;5125833;28;20168;-87
2023/02/22 00:15:26;;;;;;;6.35;3.15;;;18.30;39.70;;;;;;5126249;28;20160;-87
2023/02/22 00:17:53;;;;;;;6.75;3.13;;;18.20;39.70;;;;;;5127058;28;20240;-88
2023/02/22 00:20:19;;;;;;;7.15;3.10;;;18.20;39.70;;;;;;5108529;28;20232;-87
2023/02/22 00:22:46;;;;;;;6.22;2.83;;;18.30;39.70;;;;;;5108706;28;20286;-88
2023/02/22 00:25:13;;;;;;;6.65;3.03;;;18.40;39.80;;;;;;5125830;28;20183;-87
2023/02/22 00:27:39;;;;;;;7.55;3.15;;;18.30;39.70;;;;;;5125707;28;20235;-87
2023/02/22 00:30:06;;;;;;;6.47;3.10;;;18.30;39.70;;;;;;5109101;28;20659;-87
2023/02/22 00:32:31;;;;;;;7.65;2.85;;;18.30;39.80;;;;;;5125278;28;20152;-87
2023/02/22 00:34:58;;;;;;;6.25;2.95;;;18.40;40.40;;;;;;5108607;28;20162;-87
2023/02/22 00:37:24;;;;;;;7.90;3.15;;;18.30;39.80;;;;;;5143351;27;20141;-87
2023/02/22 00:39:50;;;;;;;4.90;2.90;;;18.30;39.80;;;;;;5125969;28;20153;-87
2023/02/22 00:42:16;;;;;;;5.97;3.10;;;18.30;39.80;;;;;;5125323;28;20614;-87
2023/02/22 00:44:44;;;;;;;5.43;3.28;;;18.30;39.90;;;;;;5108069;28;20337;-87
2023/02/22 00:47:10;;;;;;;6.95;3.15;;;18.20;39.80;;;;;;5108878;28;20570;-87
2023/02/22 00:49:37;;;;;;;9.57;3.40;;;18.20;39.90;;;;;;5125693;28;20187;-87
2023/02/22 00:52:03;;;;;;;6.38;3.13;;;18.20;39.90;;;;;;5108781;28;20168;-87
2023/02/22 00:54:31;;;;;;;8.43;2.90;;;18.20;39.90;;;;;;5109002;28;20267;-87
2023/02/22 00:56:58;;;;;;;5.68;2.90;;;18.30;39.90;;;;;;5109153;28;20175;-87
2023/02/22 00:59:29;;;;;;;6.50;3.00;;;18.20;39.90;;;;;;5142918;27;20178;-87
2023/02/22 01:01:55;;;;;;;5.20;2.90;;;18.20;40.00;;;;;;5102724;28;20187;-87
2023/02/22 01:04:21;;;;;;;8.40;3.30;;;18.20;39.90;;;;;;5087208;28;20303;-89
2023/02/22 01:06:48;;;;;;;8.15;3.33;;;18.20;40.00;;;;;;5103674;28;20161;-87
2023/02/22 01:09:14;;;;;;;4.47;2.90;;;18.20;39.90;;;;;;5104067;28;20187;-87
2023/02/22 01:11:40;;;;;;;6.68;2.80;;;18.20;40.00;;;;;;5086241;28;20169;-87
2023/02/22 01:14:08;;;;;;;9.10;3.30;;;18.20;40.00;;;;;;5087086;28;20204;-87
2023/02/22 01:16:35;;;;;;;5.82;3.20;;;18.20;40.00;;;;;;5087317;28;20173;-87
2023/02/22 01:19:01;;;;;;;4.65;2.97;;;18.20;40.10;;;;;;5086615;28;20202;-87
2023/02/22 01:21:26;;;;;;;4.53;2.90;;;18.20;40.00;;;;;;5104558;28;20181;-87
2023/02/22 01:23:53;;;;;;;6.47;3.33;;;18.10;40.00;;;;;;5088303;28;20192;-87
2023/02/22 01:26:19;;;;;;;5.63;3.17;;;18.20;40.10;;;;;;5091947;28;20204;-87
2023/02/22 01:28:46;;;;;;;6.35;3.13;;;18.20;40.20;;;;;;5126564;28;20155;-87
2023/02/22 01:31:13;;;;;;;7.55;3.40;;;18.20;40.10;;;;;;5125539;28;20168;-87
2023/02/22 01:33:40;;;;;;;4.68;3.20;;;18.20;40.70;;;;;;5109072;28;20203;-87
2023/02/22 01:36:10;;;;;;;7.20;3.17;;;18.20;40.10;;;;;;5108873;28;20209;-87
2023/02/22 01:38:38;;;;;;;7.53;3.58;;;18.20;40.10;;;;;;5108928;28;20168;-87
2023/02/22 01:41:04;;;;;;;4.70;3.15;;;18.20;40.10;;;;;;5108206;28;20679;-87
2023/02/22 01:43:32;;;;;;;6.43;3.30;;;18.20;40.20;;;;;;5108724;28;20192;-87
2023/02/22 01:46:04;;;;;;;8.23;3.47;;;18.20;40.10;;;;;;5125470;28;20155;-87
2023/02/22 01:48:51;;;;;;;4.28;2.90;;;18.10;40.20;;;;;;5108229;28;20167;-87
2023/02/22 01:51:21;;;;;;;4.40;2.72;;;18.10;40.30;;;;;;5108261;28;20620;-87
2023/02/22 01:53:52;;;;;;;5.95;3.22;;;18.10;40.20;;;;;;5107213;28;20220;-87
2023/02/22 01:56:22;;;;;;;5.85;3.30;;;18.10;40.20;;;;;;5108277;28;20168;-87
2023/02/22 01:58:50;;;;;;;7.20;3.30;;;18.10;40.20;;;;;;5106565;28;20209;-87
2023/02/22 02:01:16;;;;;;;5.03;3.08;;;18.10;40.20;;;;;;5124950;28;20159;-87
2023/02/22 02:03:43;;;;;;;6.28;2.90;;;18.20;40.30;;;;;;5142278;27;20191;-87
2023/02/22 02:06:13;;;;;;;5.55;3.28;;;18.10;40.20;;;;;;5142146;27;20212;-87
2023/02/22 02:08:48;;;;;;;4.35;2.92;;;18.10;40.20;;;;;;5124904;28;20149;-87
2023/02/22 02:11:19;;;;;;;8.05;3.60;;;18.10;40.30;;;;;;5106135;28;20715;-86
2023/02/22 02:13:54;;;;;;;5.50;3.00;;;18.10;40.40;;;;;;5107963;28;20190;-86
2023/02/22 02:16:24;;;;;;;5.95;3.15;;;18.10;40.40;;;;;;5074080;28;20661;-87
2023/02/22 02:18:50;;;;;;;7.20;3.17;;;18.00;40.30;;;;;;5107090;28;20587;-87
2023/02/22 02:21:40;;;;;;;9.32;3.53;;;18.10;40.30;;;;;;5124631;28;20297;-87
2023/02/22 02:24:31;;;;;;;6.43;3.10;;;18.10;40.40;;;;;;5104635;28;20249;-88
2023/02/22 02:27:13;;;;;;;6.60;3.00;;;18.10;40.40;;;;;;5124365;28;20167;-87
2023/02/22 02:30:10;;;;;;;7.93;3.05;;;18.10;40.40;;;;;;5105931;28;20167;-87
2023/02/22 02:32:46;;;;;;;6.13;3.22;;;18.10;40.50;;;;;;5121347;28;20163;-87
2023/02/22 02:35:35;;;;;;;6.28;3.15;;;18.00;40.40;;;;;;5140743;27;20174;-87
2023/02/22 02:38:40;;;;;;;5.18;3.08;;;18.00;40.40;;;;;;5141795;27;20231;-87
2023/02/22 02:41:14;;;;;;;6.93;3.13;;;18.00;40.40;;;;;;5117957;28;20168;-87
2023/02/22 02:43:52;;;;;;;4.65;3.10;;;18.10;40.40;;;;;;5105082;28;20279;-87
2023/02/22 02:46:23;;;;;;;4.57;2.90;;;18.00;40.40;;;;;;5122025;28;20156;-87
2023/02/22 02:48:55;;;;;;;6.68;3.10;;;18.00;40.40;;;;;;5140839;27;20148;-87
2023/02/22 02:51:22;;;;;;;4.93;2.92;;;18.00;40.50;;;;;;5106446;28;20195;-87
2023/02/22 02:53:50;;;;;;;7.07;3.13;;;18.00;40.40;;;;;;5106213;28;20693;-87
2023/02/22 02:56:17;;;;;;;4.93;3.03;;;18.10;40.50;;;;;;5106123;28;20183;-87
2023/02/22 02:58:47;;;;;;;5.40;3.30;;;18.00;40.50;;;;;;5106770;28;20175;-87
2023/02/22 03:01:20;;;;;;;5.47;2.92;;;17.90;40.50;;;;;;5105670;28;20530;-87
2023/02/22 03:04:05;;;;;;;5.63;3.20;;;18.00;40.60;;;;;;5122997;28;20182;-87
2023/02/22 03:07:05;;;;;;;5.47;3.10;;;18.00;40.70;;;;;;5122806;28;20190;-88
2023/02/22 03:09:40;;;;;;;6.38;3.13;;;18.00;40.60;;;;;;5105915;28;20167;-87
2023/02/22 03:12:26;;;;;;;4.40;2.63;;;18.00;40.60;;;;;;5122606;28;20144;-88
2023/02/22 03:15:32;;;;;;;4.70;2.60;;;18.00;40.60;;;;;;5122804;28;20526;-88
2023/02/22 03:18:08;;;;;;;5.93;3.00;;;18.00;40.70;;;;;;5116799;28;20168;-87
2023/02/22 03:21:00;;;;;;;4.25;3.00;;;18.00;40.70;;;;;;5106091;28;20191;-87
2023/02/22 03:23:32;;;;;;;4.38;3.00;;;17.90;40.70;;;;;;5088642;28;20195;-87
2023/02/22 03:26:03;;;;;;;4.25;2.80;;;18.00;40.70;;;;;;5105207;28;20168;-87
2023/02/22 03:28:30;;;;;;;5.45;2.90;;;17.90;40.60;;;;;;5104612;28;20164;-88
2023/02/22 03:30:59;;;;;;;5.05;3.17;;;18.00;40.70;;;;;;5122611;28;20156;-87
2023/02/22 03:33:35;;;;;;;5.45;3.00;;;17.90;40.70;;;;;;5106507;28;20196;-87
2023/02/22 03:36:06;;;;;;;6.03;2.90;;;17.90;40.50;;;;;;5108979;28;20185;-87
2023/02/22 03:38:33;;;;;;;4.05;2.80;;;18.00;40.70;;;;;;5109590;28;20634;-87
2023/02/22 03:41:00;;;;;;;4.93;3.13;;;18.00;40.70;;;;;;5108744;28;20637;-87
2023/02/22 03:43:29;;;;;;;4.50;3.10;;;17.90;40.60;;;;;;5109610;28;20278;-87
2023/02/22 03:45:57;;;;;;;5.05;2.80;;;17.90;40.60;;;;;;5109187;28;20190;-87
2023/02/22 03:48:42;;;;;;;4.07;2.70;;;17.90;40.70;;;;;;5109218;28;20357;-88
2023/02/22 03:51:13;;;;;;;6.32;3.10;;;18.00;40.80;;;;;;5124264;28;20580;-87
2023/02/22 03:53:39;;;;;;;6.45;3.38;;;17.90;40.70;;;;;;5108967;28;20230;-87
2023/02/22 03:56:09;;;;;;;3.67;2.50;;;17.90;40.70;;;;;;5126316;28;20168;-87
2023/02/22 03:58:36;;;;;;;4.50;2.70;;;17.90;40.70;;;;;;5127093;28;20156;-87
2023/02/22 04:01:03;;;;;;;4.57;2.75;;;17.80;40.70;;;;;;5126631;28;20156;-87
2023/02/22 04:03:29;;;;;;;3.05;2.72;;;17.90;40.80;;;;;;5110200;28;20204;-87
2023/02/22 04:05:54;;;;;;;5.65;3.10;;;17.90;40.70;;;;;;5126595;28;20157;-87
2023/02/22 04:08:20;;;;;;;5.88;3.20;;;17.90;40.70;;;;;;5109969;28;20163;-87
2023/02/22 04:10:47;;;;;;;5.25;2.80;;;17.90;40.80;;;;;;5109554;28;20191;-87
2023/02/22 04:13:13;;;;;;;4.13;3.13;;;17.90;40.80;;;;;;5108464;28;20164;-88
2023/02/22 04:15:39;;;;;;;5.30;3.20;;;17.90;40.80;;;;;;5126130;28;20284;-87
2023/02/22 04:18:05;;;;;;;5.00;3.00;;;17.90;40.70;;;;;;5107905;28;20187;-87
2023/02/22 04:20:30;;;;;;;4.45;2.80;;;17.90;40.80;;;;;;5142589;27;20248;-87
2023/02/22 04:23:02;;;;;;;4.18;2.47;;;17.90;41.50;;;;;;5108263;28;20264;-87
2023/02/22 04:25:29;;;;;;;3.92;2.80;;;17.90;40.80;;;;;;5124599;28;20172;-87
2023/02/22 04:27:56;;;;;;;6.07;3.08;;;17.90;40.80;;;;;;5107952;28;20190;-87
2023/02/22 04:30:23;;;;;;;7.20;3.47;;;17.90;40.80;;;;;;5125398;28;20209;-87
2023/02/22 04:32:49;;;;;;;4.32;2.50;;;17.80;40.80;;;;;;5125229;28;20160;-87
2023/02/22 04:35:16;;;;;;;5.00;3.42;;;17.90;40.90;;;;;;5108370;28;20171;-87
2023/02/22 04:37:42;;;;;;;5.85;2.97;;;17.80;40.80;;;;;;5107901;28;20661;-87
2023/02/22 04:40:10;;;;;;;4.72;3.10;;;17.90;40.80;;;;;;5142702;27;20160;-88
2023/02/22 04:42:36;;;;;;;6.72;3.15;;;17.80;40.80;;;;;;5125922;28;20171;-87
2023/02/22 04:45:06;;;;;;;5.05;3.00;;;17.80;40.80;;;;;;5141238;27;20160;-87
2023/02/22 04:47:34;;;;;;;4.28;3.17;;;17.80;40.90;;;;;;5108457;28;20241;-87
2023/02/22 04:50:04;;;;;;;4.85;2.80;;;17.80;40.90;;;;;;5107690;28;20175;-88
2023/02/22 04:52:29;;;;;;;3.70;2.75;;;17.80;40.90;;;;;;5124638;28;20292;-87
2023/02/22 04:54:55;;;;;;;3.53;2.70;;;17.80;40.90;;;;;;5124770;28;20191;-87
2023/02/22 04:57:21;;;;;;;3.85;3.08;;;17.80;40.90;;;;;;5124687;28;20218;-86
2023/02/22 04:59:50;;;;;;;5.82;3.10;;;17.80;41.00;;;;;;5124418;28;20167;-87
2023/02/22 05:02:17;;;;;;;4.47;3.03;;;17.80;40.90;;;;;;5108324;28;20626;-87
2023/02/22 05:04:43;;;;;;;5.50;2.90;;;17.80;40.90;;;;;;5107227;28;20206;-87
2023/02/22 05:07:10;;;;;;;4.38;3.20;;;17.80;40.90;;;;;;5124575;28;20235;-87
2023/02/22 05:09:36;;;;;;;3.85;2.80;;;17.80;40.90;;;;;;5107509;28;20160;-87
2023/02/22 05:12:03;;;;;;;5.57;2.88;;;17.80;40.90;;;;;;5107010;28;20168;-86
2023/02/22 05:14:29;;;;;;;4.03;2.70;;;17.80;41.00;;;;;;5141487;27;20202;-87
2023/02/22 05:16:56;;;;;;;4.20;2.90;;;17.80;40.90;;;;;;5124094;28;20160;-87
2023/02/22 05:19:23;;;;;;;5.38;2.90;;;17.80;40.90;;;;;;5124158;28;20145;-88
2023/02/22 05:21:55;;;;;;;3.45;2.58;;;17.80;41.00;;;;;;5123993;28;20164;-88
2023/02/22 05:24:21;;;;;;;3.88;2.85;;;17.90;41.00;;;;;;5072616;28;20223;-86
2023/02/22 05:26:46;;;;;;;4.20;2.80;;;17.80;40.90;;;;;;5107238;28;20164;-87
2023/02/22 05:29:12;;;;;;;6.13;2.70;;;17.80;41.00;;;;;;5106995;28;20174;-86
2023/02/22 05:31:40;;;;;;;4.53;2.67;;;17.70;40.90;;;;;;5123801;28;20156;-86
2023/02/22 05:34:07;;;;;;;4.50;2.92;;;17.80;41.10;;;;;;5106772;28;20160;-87
2023/02/22 05:36:33;;;;;;;5.10;2.75;;;17.80;41.70;;;;;;5140534;27;20156;-87
2023/02/22 05:39:00;;;;;;;4.40;2.85;;;17.80;41.00;;;;;;5123954;28;20164;-88
2023/02/22 05:41:27;;;;;;;5.38;3.10;;;17.80;41.10;;;;;;5124614;28;20671;-87
2023/02/22 05:43:53;;;;;;;4.32;2.80;;;17.80;41.10;;;;;;5106683;28;20267;-87
2023/02/22 05:46:19;;;;;;;4.80;2.80;;;17.70;41.00;;;;;;5125155;28;20152;-87
2023/02/22 05:48:47;;;;;;;4.38;2.83;;;17.80;41.00;;;;;;5123123;28;20168;-87
2023/02/22 05:51:12;;;;;;;5.13;2.90;;;17.80;41.00;;;;;;5123115;28;20202;-87
2023/02/22 05:53:39;;;;;;;4.80;3.30;;;17.80;41.70;;;;;;5119835;28;20691;-87
2023/02/22 05:56:05;;;;;;;5.85;2.97;;;17.80;41.10;;;;;;5102298;28;20161;-87
2023/02/22 05:58:32;;;;;;;3.92;2.83;;;17.70;41.00;;;;;;5137655;27;20168;-86
2023/02/22 06:00:58;;;;;;;4.00;3.03;;;17.70;41.00;;;;;;5119659;27;20168;-86
2023/02/22 06:03:24;;;;;;;6.07;3.10;;;17.80;41.20;;;;;;5119943;28;20196;-87
2023/02/22 06:05:50;;;;;;;3.45;2.70;;;17.70;41.10;;;;;;5085819;28;20221;-87
2023/02/22 06:08:17;;;;;;;5.45;2.90;;;17.80;41.10;;;;;;5120511;28;20160;-86
2023/02/22 06:10:43;;;;;;;3.85;2.80;;;17.70;41.10;;;;;;5085604;28;20161;-87
2023/02/22 06:13:08;;;;;;;3.50;2.88;;;17.70;41.20;;;;;;5102215;28;20162;-87
2023/02/22 06:15:34;;;;;;;3.58;2.70;;;17.70;41.10;;;;;;5086166;28;20172;-87
2023/02/22 06:18:02;;;;;;;5.63;3.20;;;17.80;41.20;;;;;;5085598;28;20679;-87
2023/02/22 06:20:32;;;;;;;4.60;2.85;;;17.80;41.10;;;;;;5107455;28;20179;-89
2023/02/22 06:22:59;;;;;;;3.50;2.70;;;17.80;41.20;;;;;;5106539;28;20624;-88
2023/02/22 06:25:30;;;;;;;4.65;2.97;;;17.70;41.10;;;;;;5102063;28;20251;-86
2023/02/22 06:27:58;;;;;;;4.63;2.92;;;17.70;41.20;;;;;;5095279;28;20189;-89
2023/02/22 06:30:25;;;;;;;5.78;2.60;;;17.70;41.10;;;;;;5094861;28;20165;-87
2023/02/22 06:32:53;;;;;;;4.43;2.72;;;17.70;41.20;;;;;;5095807;28;20165;-89
2023/02/22 06:35:22;;;;;;;3.28;2.72;;;17.80;41.20;;;;;;5123485;27;20563;-89
2023/02/22 06:38:05;;;;;;;3.83;2.70;;;17.80;41.30;;;;;;5104218;27;20262;-87
2023/02/22 06:40:30;;;;;;;3.92;2.67;;;17.70;41.20;;;;;;5105678;27;20163;-87
2023/02/22 06:43:01;;;;;;;3.38;2.65;;;17.80;41.20;;;;;;5088266;27;20186;-88
2023/02/22 06:45:29;;;;;;;5.30;2.83;;;17.70;41.30;;;;;;5103354;27;20151;-88
2023/02/22 06:47:55;;;;;;;3.38;2.58;;;17.70;41.20;;;;;;5087542;27;20156;-89
2023/02/22 06:50:24;;;;;;;3.15;2.65;;;17.70;41.20;;;;;;5092901;27;20171;-85
2023/02/22 06:52:53;;;;;;;3.47;2.88;;;17.70;41.20;;;;;;5103248;28;20373;-85
2023/02/22 06:55:21;;;;;;;4.07;2.80;;;17.70;41.20;;;;;;5137886;27;20167;-86
2023/02/22 06:57:47;;;;;;;5.50;2.92;;;17.80;41.30;;;;;;5124811;27;20147;-88
2023/02/22 07:00:15;;;;;;;4.30;2.72;;;17.80;41.90;;;;;;5119367;27;20166;-89
2023/02/22 07:02:42;;;;;;;3.67;2.80;;;17.70;41.20;;;;;;5105330;27;20174;-88
2023/02/22 07:05:09;;;;;;;4.82;2.83;;;17.70;41.20;;;;;;5103564;27;20163;-86
2023/02/22 07:07:41;;;;;;;7.22;3.00;;;17.70;41.30;;;;;;5122948;27;20163;-87
2023/02/22 07:10:07;;;;;;;4.50;2.70;;;17.70;41.10;;;;;;5121661;27;20163;-88
2023/02/22 07:12:40;;;;;;;6.45;3.00;;;17.70;41.20;;;;;;5106479;27;20598;-87
2023/02/22 07:15:22;;;;;;;;;;;;;;;;;;;;;
2023/02/22 07:17:51;;;;;;;13.52;3.75;;;17.80;41.30;;;;;;5100981;27;20278;-88
2023/02/22 07:23:38;;;;;;;35.08;4.72;;;17.80;41.50;;;;;;5060113;28;20209;-86
2023/02/22 07:26:04;;;;;;;17.67;3.90;;;17.70;41.60;;;;;;5030598;28;20174;-87
2023/02/22 07:28:43;;;;;;;22.52;3.72;;;17.80;41.50;;;;;;5025226;28;20332;-87
2023/02/22 07:31:27;;;;;;;38.13;4.80;;;17.70;41.60;;;;;;5042623;28;20215;-88
2023/02/22 07:34:25;;;;;;;31.90;4.68;;;17.70;41.80;;;;;;5026256;28;20204;-88
2023/02/22 08:19:21;;;;;;;10.93;2.83;;;18.30;41.20;;;;;;5164075;27;20222;-89
2023/02/22 08:22:17;;;;;;;19.50;3.33;;;18.30;41.10;;;;;;5074942;28;20200;-89
2023/02/22 08:24:57;;;;;;;12.23;2.90;;;18.40;41.00;;;;;;5083859;28;20687;-87
2023/02/22 08:27:42;;;;;;;8.65;2.80;;;18.40;40.70;;;;;;5066296;28;20168;-89
2023/02/22 08:30:21;;;;;;;12.80;2.88;;;18.30;41.00;;;;;;5069649;28;20178;-88
2023/02/22 08:33:07;;;;;;;13.90;2.95;;;18.30;41.00;;;;;;4948442;29;20245;-87
2023/02/22 08:35:51;;;;;;;9.45;3.00;;;18.40;41.00;;;;;;4876246;29;20206;-88
2023/02/22 08:41:39;;;;;;;8.82;2.78;;;18.40;40.50;;;;;;4856094;29;20201;-90
2023/02/22 08:44:49;;;;;;;;;;;;;;;;;;;;;
2023/02/22 08:47:56;;;;;;;6.20;2.50;;;18.50;40.50;;;;;;4780970;30;20211;-89
2023/02/22 08:51:01;;;;;;;4.78;2.58;;;18.50;41.00;;;;;;4771585;30;20271;-89
2023/02/22 08:53:54;;;;;;;6.07;2.78;;;18.50;40.70;;;;;;4782011;29;20206;-88
2023/02/22 08:56:42;;;;;;;5.95;2.72;;;18.50;40.90;;;;;;4778162;29;20254;-84
2023/02/22 08:59:07;;;;;;;8.00;2.83;;;18.50;40.60;;;;;;4812271;29;20196;-85
2023/02/22 09:01:39;;;;;;;4.28;2.50;;;18.70;40.90;;;;;;4798123;29;20625;-85
2023/02/22 09:04:05;;;;;;;5.00;2.60;;;18.60;40.70;;;;;;4816946;29;20218;-85
2023/02/22 09:06:31;;;;;;;16.20;2.85;;;18.70;40.40;;;;;;4828537;29;20190;-83
2023/02/22 09:08:58;;;;;;;7.55;2.53;;;18.70;41.40;;;;;;4827405;29;20174;-81
2023/02/22 09:11:27;;;;;;;4.78;2.38;;;18.70;41.30;;;;;;4841752;29;20184;-85
2023/02/22 09:13:56;;;;;;;7.22;2.67;;;18.70;41.70;;;;;;4858775;29;20730;-86
2023/02/22 09:16:22;;;;;;;5.55;2.53;;;18.60;41.20;;;;;;4870445;29;20206;-85
2023/02/22 09:18:48;;;;;;;7.35;2.72;;;18.60;41.80;;;;;;4905817;29;20701;-84
2023/02/22 09:21:15;;;;;;;8.45;2.33;;;18.60;42.00;;;;;;4915169;29;20375;-85
2023/02/22 09:23:53;;;;;;;6.97;2.55;;;18.60;42.20;;;;;;4931967;29;20237;-84
2023/02/22 09:26:22;;;;;;;7.68;2.45;;;18.60;42.20;;;;;;4945625;29;20286;-85
2023/02/22 09:28:49;;;;;;;11.70;2.78;;;18.60;41.80;;;;;;4980160;28;20297;-84
2023/02/22 09:31:14;;;;;;;14.75;2.72;;;18.60;41.90;;;;;;5098369;28;20184;-86
2023/02/22 09:33:43;;;;;;;10.13;2.70;;;18.60;41.50;;;;;;5112298;28;20190;-83
2023/02/22 09:36:10;;;;;;;11.15;2.28;;;18.70;42.10;;;;;;5068516;28;20194;-85
2023/02/22 09:38:37;;;;;;;8.15;2.65;;;18.70;41.60;;;;;;5137281;27;20534;-86
2023/02/22 09:41:18;;;;;;;10.73;3.28;;;18.70;41.60;;;;;;5072401;28;20541;-84
2023/02/22 09:44:01;;;;;;;4.57;2.60;;;18.70;41.50;;;;;;5100602;28;20188;-84
2023/02/22 09:46:33;;;;;;;5.35;2.45;;;18.80;40.90;;;;;;5101816;28;20168;-84
2023/02/22 09:49:23;;;;;;;11.40;2.58;;;18.90;41.00;;;;;;5120786;28;20160;-84
2023/02/22 09:51:58;;;;;;;11.00;2.60;;;18.90;41.20;;;;;;5145645;27;20167;-83
2023/02/22 09:54:34;;;;;;;7.65;2.53;;;18.80;41.60;;;;;;5126854;28;20189;-83
2023/02/22 09:57:11;;;;;;;7.95;2.65;;;18.80;41.60;;;;;;5095285;28;20178;-83
2023/02/22 09:59:41;;;;;;;8.43;2.17;;;18.70;41.90;;;;;;5062784;28;20200;-83
2023/02/22 10:02:24;;;;;;;4.65;2.55;;;18.70;42.10;;;;;;5075500;28;20177;-82
2023/02/22 10:05:40;;;;;;;5.85;2.25;;;18.80;41.70;;;;;;5075840;28;20200;-83
2023/02/22 10:08:12;;;;;;;5.40;2.33;;;18.70;41.80;;;;;;5074587;28;20185;-83
2023/02/22 10:10:51;;;;;;;9.15;2.58;;;18.70;41.50;;;;;;5061553;28;20161;-84
2023/02/22 10:13:40;;;;;;;10.63;2.38;;;18.60;41.50;;;;;;5079311;28;20160;-84
2023/02/22 10:16:23;;;;;;;8.27;2.20;;;18.70;41.40;;;;;;5072497;28;20158;-84
2023/02/22 10:19:07;;;;;;;8.35;2.33;;;18.70;41.30;;;;;;5078136;28;20240;-83
2023/02/22 10:21:48;;;;;;;3.83;2.20;;;18.70;41.40;;;;;;5079737;28;20160;-83
2023/02/22 10:24:41;;;;;;;6.80;2.33;;;18.60;40.90;;;;;;5077246;28;20786;-83
2023/02/22 10:27:16;;;;;;;6.32;2.50;;;18.80;41.00;;;;;;5052731;28;20294;-83
2023/02/22 10:29:45;;;;;;;9.00;2.58;;;18.70;41.70;;;;;;5050144;28;20195;-83
2023/02/22 10:32:15;;;;;;;7.10;2.47;;;18.70;41.80;;;;;;5102338;28;20171;-83
2023/02/22 10:34:47;;;;;;;7.43;2.40;;;18.60;41.40;;;;;;5102657;28;20167;-84
2023/02/22 10:37:27;;;;;;;4.10;2.17;;;18.70;41.60;;;;;;5104506;28;20644;-84
2023/02/22 10:40:04;;;;;;;8.15;2.38;;;18.70;41.40;;;;;;5088133;28;20179;-84
2023/02/22 10:42:30;;;;;;;4.30;2.13;;;18.80;41.60;;;;;;5084517;28;20642;-82
2023/02/22 10:44:56;;;;;;;3.58;2.30;;;18.80;41.40;;;;;;5099838;28;20187;-83
2023/02/22 10:47:21;;;;;;;7.15;2.05;;;18.80;41.20;;;;;;5062905;28;20168;-83
2023/02/22 10:49:54;;;;;;;7.78;2.55;;;18.80;41.50;;;;;;5082460;28;20168;-82
2023/02/22 10:52:37;;;;;;;5.10;2.38;;;18.80;41.40;;;;;;5099556;28;20180;-83
2023/02/22 10:55:11;;;;;;;9.20;2.20;;;18.80;41.40;;;;;;5082240;28;20164;-84
2023/02/22 10:57:37;;;;;;;7.10;2.50;;;18.70;41.30;;;;;;5070508;28;20187;-84
2023/02/22 11:00:36;;;;;;;4.68;2.20;;;18.80;40.80;;;;;;5092300;28;20180;-83
2023/02/22 11:03:05;;;;;;;7.07;2.25;;;18.80;40.80;;;;;;5101245;28;20188;-84
2023/02/22 11:05:36;;;;;;;5.07;2.03;;;18.90;40.90;;;;;;5102954;28;20185;-82
2023/02/22 11:08:24;;;;;;;4.57;2.30;;;18.80;40.90;;;;;;5087149;28;20634;-83
2023/02/22 11:10:59;;;;;;;9.00;2.20;;;18.80;40.90;;;;;;5094914;28;20559;-82
2023/02/22 11:13:28;;;;;;;8.30;2.22;;;18.90;40.70;;;;;;5129689;27;20167;-82
2023/02/22 11:16:18;;;;;;;3.38;2.10;;;18.90;40.70;;;;;;5101706;28;20183;-81
2023/02/22 11:18:44;;;;;;;6.55;2.33;;;19.00;40.30;;;;;;5112573;28;20239;-82
2023/02/22 11:21:21;;;;;;;4.30;2.60;;;19.00;40.30;;;;;;5121804;28;20582;-79
2023/02/22 11:24:01;;;;;;;3.45;2.05;;;19.00;41.00;;;;;;5089651;27;20645;-80
2023/02/22 11:26:28;;;;;;;4.47;2.15;;;19.00;40.30;;;;;;5103867;28;20652;-79
2023/02/22 11:28:56;;;;;;;4.72;2.05;;;19.00;40.20;;;;;;5108742;28;20228;-81
2023/02/22 11:31:26;;;;;;;8.98;2.30;;;19.00;40.10;;;;;;5129729;28;20144;-80
2023/02/22 11:34:00;;;;;;;7.85;2.25;;;19.00;40.30;;;;;;5117027;28;20187;-80
2023/02/22 11:36:45;;;;;;;5.82;2.28;;;18.90;40.20;;;;;;5117775;28;20223;-83
2023/02/22 11:39:23;;;;;;;7.18;2.40;;;18.90;40.40;;;;;;5118935;28;20256;-84
2023/02/22 11:41:49;;;;;;;6.80;2.40;;;18.90;40.40;;;;;;5108182;28;20171;-84
2023/02/22 11:44:29;;;;;;;8.55;2.33;;;18.90;40.40;;;;;;5103072;28;20210;-82
2023/02/22 11:46:56;;;;;;;5.43;2.25;;;18.90;40.20;;;;;;5101334;28;20163;-84
2023/02/22 11:49:23;;;;;;;5.72;2.10;;;19.00;40.10;;;;;;5106868;28;20650;-83
2023/02/22 11:52:27;;;;;;;6.47;2.45;;;18.90;40.20;;;;;;5141155;27;20159;-83
2023/02/22 11:55:20;;;;;;;5.75;2.38;;;18.90;40.20;;;;;;5109440;28;20176;-82
2023/02/22 11:58:20;;;;;;;4.78;2.22;;;18.80;40.30;;;;;;5083692;28;20185;-85
2023/02/22 12:00:56;;;;;;;11.55;2.30;;;18.90;40.10;;;;;;5039580;28;20298;-86
2023/02/22 12:03:33;;;;;;;6.13;2.05;;;18.90;40.00;;;;;;5042715;28;20332;-84
2023/02/22 12:06:23;;;;;;;8.30;2.58;;;18.90;39.90;;;;;;5038764;28;20178;-86
2023/02/22 12:09:14;;;;;;;6.80;2.10;;;18.90;40.10;;;;;;5038679;28;20258;-85
2023/02/22 12:12:07;;;;;;;5.43;1.98;;;18.90;40.30;;;;;;5035900;28;20178;-83
2023/02/22 12:14:37;;;;;;;4.97;2.45;;;19.00;39.90;;;;;;5019507;28;20186;-84
2023/02/22 12:17:39;;;;;;;4.22;2.08;;;18.90;40.00;;;;;;5035054;28;20158;-83
2023/02/22 12:20:20;;;;;;;4.40;2.00;;;19.00;39.70;;;;;;5006854;28;20218;-83
2023/02/22 12:22:53;;;;;;;4.18;2.20;;;19.00;39.60;;;;;;5014528;28;20301;-84
2023/02/22 12:25:24;;;;;;;4.30;2.13;;;19.00;39.40;;;;;;5017110;28;20270;-84
2023/02/22 12:27:55;;;;;;;5.03;2.30;;;19.00;39.10;;;;;;5038851;28;20225;-85
2023/02/22 12:30:25;;;;;;;4.38;2.08;;;19.10;39.30;;;;;;5089901;28;20555;-85
2023/02/22 12:32:58;;;;;;;3.28;2.05;;;19.00;39.00;;;;;;5061705;28;20212;-85
2023/02/22 12:35:34;;;;;;;4.68;2.08;;;19.00;38.90;;;;;;5028154;28;20189;-85
2023/02/22 12:38:21;;;;;;;3.63;2.17;;;19.00;38.60;;;;;;5057030;28;20204;-85
2023/02/22 12:40:56;;;;;;;3.25;2.35;;;18.90;38.80;;;;;;5064725;28;20176;-84
2023/02/22 12:43:33;;;;;;;4.97;2.25;;;18.80;38.60;;;;;;5063806;28;20193;-84
2023/02/22 12:46:18;;;;;;;3.50;2.05;;;18.80;38.50;;;;;;5045705;28;20168;-84
2023/02/22 12:48:57;;;;;;;3.70;2.15;;;18.80;38.70;;;;;;5062536;28;20171;-84
2023/02/22 12:51:41;;;;;;;5.28;2.28;;;18.80;38.70;;;;;;5094141;28;20144;-83
2023/02/22 12:54:17;;;;;;;4.72;2.15;;;18.80;38.50;;;;;;5096563;28;20180;-84
2023/02/22 12:56:52;;;;;;;3.70;2.40;;;18.80;38.40;;;;;;5099750;28;20210;-84
2023/02/22 12:59:33;;;;;;;5.03;2.13;;;18.80;38.30;;;;;;5068070;28;20252;-85
2023/02/22 13:02:08;;;;;;;6.13;2.22;;;18.80;38.30;;;;;;5067879;28;20202;-84
2023/02/22 13:04:35;;;;;;;3.67;2.03;;;18.70;38.30;;;;;;5064482;28;20184;-84
2023/02/22 13:07:17;;;;;;;3.85;2.35;;;18.80;38.30;;;;;;5063911;28;20177;-84
2023/02/22 13:10:17;;;;;;;4.47;2.25;;;18.70;38.10;;;;;;5065805;28;20157;-85
2023/02/22 13:13:03;;;;;;;5.68;2.35;;;18.80;38.10;;;;;;5119944;27;20251;-84
2023/02/22 13:15:52;;;;;;;4.00;2.22;;;18.80;38.30;;;;;;5145140;27;20148;-85
2023/02/22 13:18:25;;;;;;;9.20;2.38;;;18.90;38.10;;;;;;5108832;27;20170;-85
2023/02/22 13:21:23;;;;;;;2.22;2.00;;;18.90;38.20;;;;;;5123491;27;20207;-84
2023/02/22 13:24:29;;;;;;;4.55;2.28;;;19.00;38.00;;;;;;5123157;27;20207;-86
2023/02/22 13:27:00;;;;;;;3.25;2.30;;;19.10;38.00;;;;;;5123934;27;20653;-83
2023/02/22 13:29:28;;;;;;;3.50;2.00;;;19.10;38.00;;;;;;5104332;27;20242;-84
2023/02/22 13:32:29;;;;;;;4.68;2.22;;;19.20;38.20;;;;;;5106725;27;20565;-85
2023/02/22 13:35:20;;;;;;;2.97;2.03;;;19.20;38.10;;;;;;5130186;27;20177;-87
2023/02/22 13:38:08;;;;;;;3.65;2.40;;;19.10;37.90;;;;;;5120571;27;20186;-87
2023/02/22 13:40:55;;;;;;;4.15;2.30;;;19.10;37.90;;;;;;5109142;28;20200;-87
2023/02/22 13:47:09;;;;;;;4.35;2.25;;;19.00;37.60;;;;;;5109272;28;20172;-86
2023/02/22 13:50:07;;;;;;;4.97;2.08;;;18.90;37.80;;;;;;5091272;28;20283;-86
2023/02/22 13:52:37;;;;;;;2.47;2.10;;;19.00;37.50;;;;;;5089823;28;20188;-86
2023/02/22 13:55:23;;;;;;;4.22;2.38;;;18.90;37.50;;;;;;5092474;28;20187;-86
2023/02/22 13:58:10;;;;;;;2.15;1.95;;;19.00;37.50;;;;;;4967252;29;20253;-86
2023/02/22 14:00:51;;;;;;;3.78;2.10;;;18.80;37.50;;;;;;4954242;29;20189;-86
2023/02/22 14:03:36;;;;;;;3.45;2.33;;;18.90;37.40;;;;;;4936498;29;20200;-86
2023/02/22 14:06:37;;;;;;;3.03;2.65;;;18.90;37.30;;;;;;4911767;29;20245;-87
2023/02/22 14:45:38;;;;;;;3.28;2.17;;;18.90;36.90;;;;;;5126783;28;20244;-85
2023/02/22 14:48:23;;;;;;;3.17;2.20;;;18.90;37.00;;;;;;5022283;28;20240;-86
2023/02/22 14:51:27;;;;;;;2.72;2.42;;;18.90;36.80;;;;;;4984125;28;20180;-85
2023/02/22 14:54:17;;;;;;;3.47;2.20;;;19.00;36.70;;;;;;4945517;29;20195;-83